createdAt,value
2022-10-05T00:01:30.701Z,13.54
2022-10-05T00:04:17.230Z,13.66
2022-10-05T00:06:47.558Z,13.98
2022-10-05T00:09:23.438Z,13.71
2022-10-05T00:11:51.177Z,14.01
2022-10-05T00:14:21.435Z,14.02
2022-10-05T00:16:48.683Z,13.86
2022-10-05T00:19:21.523Z,13.92
2022-10-05T00:21:48.408Z,13.47
2022-10-05T00:24:19.446Z,13.34
2022-10-05T00:26:46.415Z,13.46
2022-10-05T00:29:22.223Z,13.71
2022-10-05T00:31:50.445Z,13.31
2022-10-05T00:34:17.928Z,13.51
2022-10-05T00:36:45.626Z,13.52
2022-10-05T00:39:12.802Z,13.33
2022-10-05T00:41:48.500Z,13.74
2022-10-05T00:44:41.895Z,13.37
2022-10-05T00:47:36.439Z,13.44
2022-10-05T00:50:30.031Z,13.47
2022-10-05T00:53:33.139Z,13.19
2022-10-05T00:56:18.739Z,13.04
2022-10-05T00:59:11.218Z,13.54
2022-10-05T01:01:52.983Z,13.45
2022-10-05T01:04:38.352Z,13.35
2022-10-05T01:07:34.380Z,13.45
2022-10-05T01:10:15.972Z,13.62
2022-10-05T01:12:54.435Z,13.57
2022-10-05T01:15:51.748Z,13.61
2022-10-05T01:18:44.365Z,13.26
2022-10-05T01:21:21.874Z,13.19
2022-10-05T01:24:10.329Z,13.29
2022-10-05T01:26:58.493Z,13.37
2022-10-05T01:30:03.388Z,13.12
2022-10-05T01:32:59.634Z,13.12
2022-10-05T01:35:41.391Z,13.51
2022-10-05T01:38:22.902Z,13.50
2022-10-05T01:40:57.607Z,13.43
2022-10-05T01:43:42.287Z,13.19
2022-10-05T01:46:23.389Z,13.03
2022-10-05T01:49:16.375Z,13.09
2022-10-05T01:52:17.551Z,12.99
2022-10-05T01:54:50.187Z,12.82
2022-10-05T01:57:48.548Z,12.29
2022-10-05T02:00:18.220Z,12.38
2022-10-05T02:02:52.618Z,12.64
2022-10-05T02:05:29.222Z,12.67
2022-10-05T02:08:15.739Z,12.83
2022-10-05T02:10:51.843Z,12.76
2022-10-05T02:13:39.799Z,12.45
2022-10-05T02:16:16.601Z,12.76
2022-10-05T02:19:02.357Z,12.62
2022-10-05T02:21:31.519Z,12.61
2022-10-05T02:24:03.454Z,12.49
2022-10-05T02:26:33.354Z,12.47
2022-10-05T02:29:04.619Z,12.37
2022-10-05T02:31:43.254Z,11.91
2022-10-05T02:34:36.230Z,12.15
2022-10-05T02:37:15.667Z,11.80
2022-10-05T02:40:23.668Z,11.65
2022-10-05T02:43:21.091Z,11.97
2022-10-05T02:45:54.018Z,11.92
2022-10-05T02:48:26.426Z,11.57
2022-10-05T02:51:24.191Z,12.15
2022-10-05T02:54:07.936Z,12.45
2022-10-05T02:56:52.367Z,12.26
2022-10-05T02:59:40.599Z,12.36
2022-10-05T03:02:09.815Z,11.67
2022-10-05T03:04:39.309Z,11.82
2022-10-05T03:07:13.563Z,11.87
2022-10-05T03:10:04.494Z,12.11
2022-10-05T03:12:53.955Z,12.46
2022-10-05T03:15:57.267Z,12.62
2022-10-05T03:18:30.918Z,12.61
2022-10-05T03:21:24.465Z,12.49
2022-10-05T03:24:31.361Z,12.62
2022-10-05T03:27:27.123Z,12.77
2022-10-05T03:29:53.641Z,12.48
2022-10-05T03:32:51.772Z,12.68
2022-10-05T03:35:30.012Z,12.28
2022-10-05T03:38:02.802Z,11.95
2022-10-05T03:40:55.932Z,11.96
2022-10-05T03:43:54.691Z,11.72
2022-10-05T03:46:21.253Z,12.31
2022-10-05T03:48:50.511Z,12.23
2022-10-05T03:51:42.791Z,11.90
2022-10-05T03:54:23.539Z,12.26
2022-10-05T03:56:55.779Z,11.92
2022-10-05T03:59:22.318Z,11.44
2022-10-05T04:01:56.927Z,11.71
2022-10-05T04:04:33.248Z,11.76
2022-10-05T04:07:01.608Z,11.69
2022-10-05T04:09:36.688Z,11.54
2022-10-05T04:12:24.970Z,11.51
2022-10-05T04:14:59.438Z,11.49
2022-10-05T04:17:35.022Z,11.81
2022-10-05T04:20:14.951Z,11.34
2022-10-05T04:22:52.102Z,11.54
2022-10-05T04:25:25.271Z,11.52
2022-10-05T04:28:22.721Z,11.31
2022-10-05T04:30:52.179Z,11.55
2022-10-05T04:33:18.925Z,11.61
2022-10-05T04:36:22.523Z,11.63
2022-10-05T04:39:07.643Z,11.51
2022-10-05T04:42:09.147Z,11.44
2022-10-05T04:44:55.883Z,11.55
2022-10-05T04:47:35.448Z,11.77
2022-10-05T04:50:15.808Z,11.67
2022-10-05T04:53:10.210Z,11.72
2022-10-05T04:55:42.444Z,11.77
2022-10-05T04:58:24.937Z,11.88
2022-10-05T05:01:06.732Z,11.65
2022-10-05T05:03:50.052Z,12.08
2022-10-05T05:06:22.274Z,12.18
2022-10-05T05:09:22.241Z,12.11
2022-10-05T05:12:11.586Z,12.40
2022-10-05T05:14:55.350Z,12.54
2022-10-05T05:17:37.123Z,12.86
2022-10-05T05:20:06.485Z,13.03
2022-10-05T05:23:01.045Z,12.86
2022-10-05T05:25:56.649Z,12.72
2022-10-05T05:28:46.228Z,12.46
2022-10-05T05:31:33.344Z,12.71
2022-10-05T05:34:12.071Z,12.68
2022-10-05T05:36:58.000Z,12.86
2022-10-05T05:39:45.412Z,13.06
2022-10-05T05:42:46.101Z,13.16
2022-10-05T05:45:39.178Z,13.30
2022-10-05T05:48:19.421Z,12.91
2022-10-05T05:50:58.344Z,12.97
2022-10-05T05:53:35.323Z,12.98
2022-10-05T05:56:06.864Z,13.17
2022-10-05T05:58:41.665Z,13.50
2022-10-05T06:01:33.221Z,13.32
2022-10-05T06:04:11.030Z,13.56
2022-10-05T06:06:42.503Z,13.53
2022-10-05T06:09:40.548Z,13.67
2022-10-05T06:12:14.686Z,13.63
2022-10-05T06:14:44.967Z,13.97
2022-10-05T06:17:18.415Z,13.54
2022-10-05T06:19:47.353Z,13.82
2022-10-05T06:22:30.498Z,14.04
2022-10-05T06:25:12.404Z,13.64
2022-10-05T06:27:57.943Z,13.44
2022-10-05T06:30:30.968Z,13.57
2022-10-05T06:33:06.481Z,13.82
2022-10-05T06:35:39.079Z,14.14
2022-10-05T06:38:27.447Z,13.98
2022-10-05T06:41:01.801Z,14.04
2022-10-05T06:43:31.017Z,14.52
2022-10-05T06:46:19.279Z,14.91
2022-10-05T06:48:53.197Z,13.78
2022-10-05T06:51:34.639Z,14.18
2022-10-05T06:54:04.714Z,13.32
2022-10-05T06:56:43.941Z,13.60
2022-10-05T06:59:18.553Z,13.18
2022-10-05T07:02:06.179Z,13.16
2022-10-05T07:04:36.713Z,12.84
2022-10-05T07:07:38.268Z,13.23
2022-10-05T07:10:22.699Z,13.28
2022-10-05T07:13:29.876Z,13.32
2022-10-05T07:16:26.411Z,13.85
2022-10-05T07:19:02.155Z,13.98
2022-10-05T07:21:43.843Z,14.22
2022-10-05T07:24:32.382Z,14.40
2022-10-05T07:27:17.249Z,13.36
2022-10-05T07:29:55.682Z,14.21
2022-10-05T07:32:47.061Z,14.36
2022-10-05T07:36:17.082Z,13.51
2022-10-05T07:39:23.485Z,13.96
2022-10-05T07:41:59.886Z,14.26
2022-10-05T07:44:53.178Z,14.45
2022-10-05T07:47:27.364Z,14.44
2022-10-05T07:49:58.107Z,14.63
2022-10-05T07:52:36.746Z,14.12
2022-10-05T07:55:47.268Z,14.04
2022-10-05T07:58:19.211Z,13.89
2022-10-05T08:00:59.634Z,13.98
2022-10-05T08:03:58.612Z,14.21
2022-10-05T08:06:48.532Z,14.45
2022-10-05T08:09:36.212Z,14.50
2022-10-05T08:12:27.457Z,14.54
2022-10-05T08:14:58.974Z,15.04
2022-10-05T08:17:51.308Z,14.77
2022-10-05T08:20:26.710Z,14.59
2022-10-05T08:23:12.327Z,14.54
2022-10-05T08:25:53.556Z,14.55
2022-10-05T08:28:26.137Z,14.52
2022-10-05T08:31:11.157Z,14.51
2022-10-05T08:34:02.718Z,14.51
2022-10-05T08:36:53.693Z,14.53
2022-10-05T08:39:26.400Z,15.23
2022-10-05T08:42:11.288Z,15.35
2022-10-05T08:44:56.686Z,15.24
2022-10-05T08:47:49.147Z,15.50
2022-10-05T08:50:16.158Z,15.52
2022-10-05T08:53:07.783Z,15.43
2022-10-05T08:55:46.583Z,15.47
2022-10-05T08:58:26.095Z,15.69
2022-10-05T09:01:12.158Z,14.86
2022-10-05T09:04:17.592Z,15.17
2022-10-05T09:07:08.538Z,15.27
2022-10-05T09:10:13.172Z,15.36
2022-10-05T09:13:16.566Z,15.18
2022-10-05T09:16:09.227Z,14.76
2022-10-05T09:19:04.279Z,15.37
2022-10-05T09:21:42.153Z,15.03
2022-10-05T09:24:14.357Z,15.38
2022-10-05T09:26:40.876Z,15.95
2022-10-05T09:29:26.261Z,15.66
2022-10-05T09:32:20.260Z,15.53
2022-10-05T09:34:47.782Z,15.42
2022-10-05T09:37:56.219Z,15.18
2022-10-05T09:40:41.825Z,15.11
2022-10-05T09:43:26.446Z,15.52
2022-10-05T09:46:01.963Z,15.78
2022-10-05T09:48:34.482Z,16.18
2022-10-05T09:51:06.903Z,16.26
2022-10-05T09:53:47.163Z,16.53
2022-10-05T09:56:22.911Z,16.00
2022-10-05T09:59:15.384Z,16.01
2022-10-05T10:02:20.915Z,15.78
2022-10-05T10:05:04.157Z,15.83
2022-10-05T10:07:50.243Z,16.39
2022-10-05T10:10:22.557Z,16.26
2022-10-05T10:13:13.945Z,16.87
2022-10-05T10:16:04.533Z,16.81
2022-10-05T10:19:00.113Z,15.39
2022-10-05T10:21:57.376Z,16.40
2022-10-05T10:24:35.486Z,15.91
2022-10-05T10:27:16.597Z,16.64
2022-10-05T10:29:43.107Z,16.53
2022-10-05T10:32:12.666Z,16.64
2022-10-05T10:34:54.108Z,16.54
2022-10-05T10:37:57.851Z,16.36
2022-10-05T10:40:30.233Z,15.95
2022-10-05T10:43:05.682Z,15.77
2022-10-05T10:46:23.889Z,16.53
2022-10-05T10:49:29.405Z,17.04
2022-10-05T10:52:22.811Z,17.06
2022-10-05T10:55:10.863Z,17.29
2022-10-05T10:57:56.029Z,17.06
2022-10-05T11:00:55.763Z,16.94
2022-10-05T11:03:40.895Z,16.22
2022-10-05T11:06:22.809Z,16.61
2022-10-05T11:09:15.058Z,16.80
2022-10-05T11:12:17.822Z,17.07
2022-10-05T11:15:02.415Z,17.23
2022-10-05T11:17:48.203Z,17.05
2022-10-05T11:20:35.641Z,17.52
2022-10-05T11:23:39.193Z,17.61
2022-10-05T11:26:44.500Z,16.96
2022-10-05T11:29:20.060Z,17.42
2022-10-05T11:32:08.455Z,17.61
2022-10-05T11:35:06.127Z,17.87
2022-10-05T11:37:58.989Z,17.65
2022-10-05T11:41:02.181Z,17.61
2022-10-05T11:43:37.712Z,17.86
2022-10-05T11:46:52.496Z,18.06
2022-10-05T11:49:32.766Z,17.75
2022-10-05T11:51:59.292Z,17.29
2022-10-05T11:55:05.920Z,17.55
2022-10-05T11:57:43.150Z,16.55
2022-10-05T12:00:12.926Z,17.34
2022-10-05T12:02:56.009Z,16.99
2022-10-05T12:05:49.225Z,16.55
2022-10-05T12:08:49.973Z,17.51
2022-10-05T12:12:01.760Z,17.83
2022-10-05T12:14:37.981Z,17.75
2022-10-05T12:17:17.011Z,17.60
2022-10-05T12:19:55.561Z,18.22
2022-10-05T12:22:45.822Z,18.09
2022-10-05T12:25:19.158Z,18.05
2022-10-05T12:27:49.384Z,17.76
2022-10-05T12:30:33.106Z,18.00
2022-10-05T12:33:02.989Z,17.24
2022-10-05T12:35:48.965Z,17.36
2022-10-05T12:38:32.890Z,17.51
2022-10-05T12:41:10.883Z,17.81
2022-10-05T12:44:14.067Z,17.94
2022-10-05T12:46:59.323Z,18.01
2022-10-05T12:49:47.830Z,18.07
2022-10-05T12:52:33.149Z,17.82
2022-10-05T12:55:18.154Z,17.78
2022-10-05T12:58:03.361Z,18.21
2022-10-05T13:00:31.977Z,18.66
2022-10-05T13:03:23.391Z,18.36
2022-10-05T13:06:08.512Z,17.82
2022-10-05T13:08:58.976Z,18.14
2022-10-05T13:11:36.162Z,18.53
2022-10-05T13:14:16.556Z,18.11
2022-10-05T13:17:10.210Z,18.20
2022-10-05T13:19:44.641Z,18.46
2022-10-05T13:22:30.771Z,17.94
2022-10-05T13:25:13.660Z,18.15
2022-10-05T13:27:55.339Z,18.32
2022-10-05T13:30:22.273Z,18.51
2022-10-05T13:33:20.760Z,18.43
2022-10-05T13:36:01.567Z,18.79
2022-10-05T13:38:48.965Z,18.69
2022-10-05T13:41:50.216Z,18.56
2022-10-05T13:44:34.216Z,18.57
2022-10-05T13:47:00.939Z,18.81
2022-10-05T13:49:59.767Z,18.73
2022-10-05T13:52:44.894Z,18.39
2022-10-05T13:55:14.179Z,18.59
2022-10-05T13:57:57.508Z,18.68
2022-10-05T14:00:27.124Z,18.25
2022-10-05T14:02:56.713Z,18.77
2022-10-05T14:05:24.573Z,18.80
2022-10-05T14:07:52.940Z,18.86
2022-10-05T14:10:49.209Z,18.91
2022-10-05T14:13:24.090Z,18.99
2022-10-05T14:16:12.587Z,18.46
2022-10-05T14:18:51.779Z,18.68
2022-10-05T14:21:23.943Z,18.85
2022-10-05T14:23:51.708Z,18.83
2022-10-05T14:26:19.895Z,18.90
2022-10-05T14:29:03.043Z,18.85
2022-10-05T14:31:37.430Z,18.75
2022-10-05T14:34:29.319Z,18.54
2022-10-05T14:37:29.894Z,18.39
2022-10-05T14:40:03.466Z,18.48
2022-10-05T14:42:46.966Z,18.43
2022-10-05T14:45:20.050Z,18.40
2022-10-05T14:47:52.381Z,18.27
2022-10-05T14:50:26.115Z,18.28
2022-10-05T14:53:21.353Z,18.16
2022-10-05T14:56:03.102Z,18.00
2022-10-05T14:58:57.776Z,18.09
2022-10-05T15:01:35.166Z,17.98
2022-10-05T15:04:26.378Z,17.91
2022-10-05T15:06:55.513Z,17.94
2022-10-05T15:09:52.324Z,17.78
2022-10-05T15:12:27.877Z,17.80
2022-10-05T15:15:02.917Z,17.77
2022-10-05T15:17:52.592Z,17.68
2022-10-05T15:20:29.303Z,17.67
2022-10-05T15:23:05.319Z,17.66
2022-10-05T15:25:40.534Z,17.62
2022-10-05T15:28:48.348Z,17.52
2022-10-05T15:31:34.035Z,17.39
2022-10-05T15:34:13.444Z,17.33
2022-10-05T15:36:48.007Z,17.34
2022-10-05T15:39:46.798Z,17.34
2022-10-05T15:42:20.243Z,17.10
2022-10-05T15:45:10.806Z,17.06
2022-10-05T15:48:00.095Z,16.80
2022-10-05T15:50:32.367Z,16.96
2022-10-05T15:52:59.203Z,16.98
2022-10-05T15:55:47.270Z,16.89
2022-10-05T15:58:49.770Z,16.80
2022-10-05T16:01:20.103Z,16.79
2022-10-05T16:04:02.304Z,16.34
2022-10-05T16:06:47.406Z,16.57
2022-10-05T16:09:19.822Z,16.48
2022-10-05T16:12:06.642Z,16.61
2022-10-05T16:14:59.824Z,16.51
2022-10-05T16:17:40.981Z,16.53
2022-10-05T16:20:50.092Z,16.48
2022-10-05T16:23:41.773Z,16.45
2022-10-05T16:26:42.934Z,16.37
2022-10-05T16:29:35.518Z,16.37
2022-10-05T16:32:22.530Z,16.30
2022-10-05T16:34:57.776Z,16.30
2022-10-05T16:37:32.209Z,16.29
2022-10-05T16:40:03.227Z,16.29
2022-10-05T16:42:50.937Z,16.22
2022-10-05T16:45:44.985Z,16.25
2022-10-05T16:48:18.141Z,16.19
2022-10-05T16:50:59.719Z,16.14
2022-10-05T16:53:34.205Z,16.17
2022-10-05T16:56:06.338Z,16.12
2022-10-05T16:58:56.428Z,15.97
2022-10-05T17:01:42.249Z,16.06
2022-10-05T17:04:12.186Z,15.99
2022-10-05T17:07:07.546Z,15.96
2022-10-05T17:09:43.304Z,15.86
2022-10-05T17:12:40.912Z,15.85
2022-10-05T17:15:31.934Z,15.71
2022-10-05T17:18:04.327Z,15.81
2022-10-05T17:20:33.981Z,15.86
2022-10-05T17:23:31.360Z,15.62
2022-10-05T17:26:02.380Z,15.71
2022-10-05T17:28:58.092Z,15.58
2022-10-05T17:31:28.103Z,15.70
2022-10-05T17:34:00.507Z,15.58
2022-10-05T17:36:54.240Z,15.37
2022-10-05T17:39:48.814Z,15.29
2022-10-05T17:42:30.272Z,15.28
2022-10-05T17:45:14.827Z,15.14
2022-10-05T17:48:03.457Z,15.05
2022-10-05T17:51:15.042Z,15.13
2022-10-05T17:54:03.241Z,15.06
2022-10-05T17:56:31.843Z,15.16
2022-10-05T17:59:00.153Z,15.10
2022-10-05T18:01:30.330Z,15.05
2022-10-05T18:04:12.455Z,15.01
2022-10-05T18:06:43.114Z,15.06
2022-10-05T18:09:17.088Z,14.97
2022-10-05T18:11:48.093Z,14.95
2022-10-05T18:14:24.925Z,14.89
2022-10-05T18:16:59.404Z,14.99
2022-10-05T18:19:31.485Z,15.10
2022-10-05T18:22:01.331Z,15.06
2022-10-05T18:24:41.190Z,15.15
2022-10-05T18:27:48.231Z,15.12
2022-10-05T18:30:20.900Z,15.23
2022-10-05T18:33:05.905Z,15.13
2022-10-05T18:35:51.402Z,14.99
2022-10-05T18:38:21.870Z,15.07
2022-10-05T18:40:53.529Z,15.13
2022-10-05T18:43:43.702Z,15.16
2022-10-05T18:46:39.487Z,14.98
2022-10-05T18:49:24.979Z,14.76
2022-10-05T18:52:20.121Z,14.85
2022-10-05T18:55:11.723Z,14.91
2022-10-05T18:58:10.568Z,14.92
2022-10-05T19:00:58.446Z,15.00
2022-10-05T19:04:13.168Z,14.74
2022-10-05T19:06:56.868Z,14.80
2022-10-05T19:09:42.019Z,14.94
2022-10-05T19:15:16.787Z,14.88
2022-10-05T19:18:01.538Z,14.93
2022-10-05T19:20:41.559Z,14.75
2022-10-05T19:23:22.383Z,14.76
2022-10-05T19:25:58.768Z,14.62
2022-10-05T19:28:37.038Z,14.71
2022-10-05T19:31:12.355Z,14.87
2022-10-05T19:34:22.257Z,14.72
2022-10-05T19:36:54.661Z,14.71
2022-10-05T19:39:37.356Z,14.64
2022-10-05T19:42:32.097Z,14.65
2022-10-05T19:45:28.111Z,14.55
2022-10-05T19:48:08.529Z,14.64
2022-10-05T19:50:38.485Z,14.71
2022-10-05T19:53:17.222Z,14.46
2022-10-05T19:55:47.180Z,14.40
2022-10-05T19:58:31.589Z,14.44
2022-10-05T20:03:53.293Z,14.26
2022-10-05T20:06:22.657Z,14.41
2022-10-05T20:08:51.957Z,14.42
2022-10-05T20:11:23.417Z,14.51
2022-10-05T20:13:52.990Z,14.34
2022-10-05T20:16:53.211Z,14.47
2022-10-05T20:19:50.685Z,14.49
2022-10-05T20:22:36.598Z,14.41
2022-10-05T20:25:18.209Z,14.51
2022-10-05T20:27:51.144Z,14.57
2022-10-05T20:30:37.965Z,14.41
2022-10-05T20:33:10.400Z,14.43
2022-10-05T20:35:36.975Z,14.28
2022-10-05T20:38:09.743Z,14.32
2022-10-05T20:40:36.372Z,14.29
2022-10-05T20:43:06.537Z,14.20
2022-10-05T20:45:33.106Z,14.31
2022-10-05T20:47:59.792Z,14.43
2022-10-05T20:50:27.582Z,14.34
2022-10-05T20:52:55.986Z,14.37
2022-10-05T20:55:22.590Z,14.31
2022-10-05T20:57:49.168Z,14.32
2022-10-05T21:00:15.830Z,14.28
2022-10-05T21:02:42.470Z,14.40
2022-10-05T21:05:12.460Z,14.37
2022-10-05T21:07:40.994Z,14.43
2022-10-05T21:10:08.424Z,14.43
2022-10-05T21:12:35.323Z,14.31
2022-10-05T21:15:04.735Z,14.22
2022-10-05T21:17:34.697Z,14.37
2022-10-05T21:20:01.305Z,14.37
2022-10-05T21:22:27.933Z,14.35
2022-10-05T21:24:55.220Z,14.27
2022-10-05T21:27:21.820Z,14.18
2022-10-05T21:29:48.426Z,14.24
2022-10-05T21:32:15.035Z,14.21
2022-10-05T21:34:41.755Z,14.27
2022-10-05T21:37:08.824Z,14.15
2022-10-05T21:39:36.698Z,14.07
2022-10-05T21:44:54.831Z,14.08
2022-10-05T21:47:21.425Z,14.11
2022-10-05T21:49:48.116Z,14.19
2022-10-05T21:52:14.886Z,14.04
2022-10-05T21:54:41.523Z,13.92
2022-10-05T21:57:11.791Z,13.86
2022-10-05T21:59:38.878Z,13.62
2022-10-05T22:02:05.547Z,13.40
2022-10-05T22:04:32.247Z,13.15
2022-10-05T22:06:59.288Z,12.90
2022-10-05T22:09:25.982Z,12.43
2022-10-05T22:11:52.717Z,11.74
2022-10-05T22:14:19.280Z,11.57
2022-10-05T22:16:46.022Z,12.10
2022-10-05T22:19:19.163Z,12.59
2022-10-05T22:21:45.893Z,12.84
2022-10-05T22:24:12.627Z,13.16
2022-10-05T22:26:41.750Z,13.09
2022-10-05T22:29:09.655Z,13.17
2022-10-05T22:31:36.902Z,13.05
2022-10-05T22:34:03.724Z,13.15
2022-10-05T22:36:30.417Z,13.20
2022-10-05T22:38:57.049Z,13.29
2022-10-05T22:41:23.642Z,13.30
2022-10-05T22:43:51.310Z,13.41
2022-10-05T22:46:18.401Z,13.29
2022-10-05T22:48:45.114Z,13.32
2022-10-05T22:51:13.833Z,13.42
2022-10-05T22:53:40.506Z,13.47
2022-10-05T22:56:12.578Z,13.46
2022-10-05T22:58:39.992Z,13.58
2022-10-05T23:01:09.667Z,13.57
2022-10-05T23:03:36.509Z,13.51
2022-10-05T23:06:09.079Z,13.41
2022-10-05T23:08:37.655Z,12.95
2022-10-05T23:11:08.872Z,12.84
2022-10-05T23:13:35.821Z,12.49
2022-10-05T23:16:10.021Z,12.82
2022-10-05T23:18:37.166Z,12.97
2022-10-05T23:21:05.805Z,12.89
2022-10-05T23:23:32.409Z,12.82
2022-10-05T23:25:59.943Z,12.51
2022-10-05T23:28:28.000Z,12.68
2022-10-05T23:31:02.597Z,12.66
2022-10-05T23:33:29.576Z,12.63
2022-10-05T23:36:12.805Z,12.70
2022-10-05T23:38:39.604Z,12.62
2022-10-05T23:41:07.555Z,12.83
2022-10-05T23:43:34.680Z,12.92
2022-10-05T23:46:04.780Z,12.92
2022-10-05T23:48:32.311Z,12.68
2022-10-05T23:50:59.877Z,12.72
2022-10-05T23:53:26.664Z,12.77
2022-10-05T23:55:55.573Z,12.80
2022-10-05T23:58:22.897Z,13.03
